Time;durP1;ratioP1;P1;durP2;ratioP2;P2;SDS_P1;SDS_P2;PMS_P1;PMS_P2;Temp;Humidity;BMP_temperature;BMP_pressure;BME280_temperature;BME280_humidity;BME280_pressure;Samples;Min_cycle;Max_cycle;Signal;HPM_P1;HPM_P2
2022/12/28 00:01:27;;;;;;;;;;;2.70;87.90;;;-151.14;100.00;62537.16;5017641;28;19927;-80
2022/12/28 00:03:55;;;;;;;;;;;2.70;87.90;;;-151.14;100.00;62537.16;5025055;28;20228;-80
2022/12/28 00:06:24;;;;;;;;;;;2.70;87.90;;;-151.14;100.00;62537.16;5032953;28;19927;-80
2022/12/28 00:08:53;;;;;;;;;;;2.70;87.80;;;-151.14;100.00;62537.16;5050307;28;20112;-80
2022/12/28 00:11:21;;;;;;;;;;;2.70;87.80;;;-151.14;100.00;62537.16;5033686;28;19921;-80
2022/12/28 00:13:49;;;;;;;;;;;2.70;87.80;;;-151.14;100.00;62537.16;5049758;28;20110;-81
2022/12/28 00:16:20;;;;;;;;;;;2.70;87.80;;;-151.14;100.00;62537.16;5049802;28;19921;-80
2022/12/28 00:18:50;;;;;;;;;;;2.70;87.80;;;-151.14;100.00;62537.16;5017023;28;19921;-80
2022/12/28 00:21:18;;;;;;;;;;;2.70;87.80;;;-151.14;100.00;62537.16;5050178;28;19927;-81
2022/12/28 00:23:48;;;;;;;;;;;2.70;87.80;;;-151.14;100.00;62537.16;5049716;28;19921;-81
2022/12/28 00:26:16;;;;;;;;;;;2.70;87.90;;;-151.14;100.00;62537.16;5049326;28;19927;-80
2022/12/28 00:28:44;;;;;;;;;;;2.70;87.90;;;-151.14;100.00;62537.16;5049897;28;19935;-80
2022/12/28 00:31:12;;;;;;;;;;;2.70;87.90;;;-151.14;100.00;62537.16;5033564;28;19921;-80
2022/12/28 00:33:40;;;;;;;;;;;2.70;87.90;;;-151.14;100.00;62537.16;5049396;28;19927;-80
2022/12/28 00:36:10;;;;;;;;;;;2.70;88.00;;;-151.14;100.00;62537.16;5049418;28;19921;-80
2022/12/28 00:38:39;;;;;;;;;;;2.80;87.90;;;-151.14;100.00;62537.16;5033331;28;19920;-80
2022/12/28 00:41:07;;;;;;;;;;;2.70;87.90;;;-151.14;100.00;62537.16;5033513;28;19936;-80
2022/12/28 00:43:35;;;;;;;;;;;2.80;88.00;;;-151.14;100.00;62537.16;5032998;28;20128;-80
2022/12/28 00:46:03;;;;;;;;;;;2.70;88.00;;;-151.14;100.00;62537.16;5049344;28;20212;-81
2022/12/28 00:48:31;;;;;;;;;;;2.70;88.00;;;-151.14;100.00;62537.16;5049387;28;19921;-80
2022/12/28 00:51:04;;;;;;;;;;;2.70;87.90;;;-151.14;100.00;62537.16;5029840;28;19921;-80
2022/12/28 00:53:46;;;;;;;;;;;2.80;87.90;;;-151.14;100.00;62537.16;5046432;28;19921;-81
2022/12/28 00:56:15;;;;;;;;;;;2.70;87.80;;;-151.14;100.00;62537.16;5051847;28;19924;-80
2022/12/28 00:58:43;;;;;;;;;;;2.70;87.80;;;-151.14;100.00;62537.16;5036782;28;19920;-80
2022/12/28 01:01:12;;;;;;;;;;;2.70;87.90;;;-151.14;100.00;62537.16;5033150;28;19928;-80
2022/12/28 01:03:40;;;;;;;;;;;2.70;87.80;;;-151.14;100.00;62537.16;5016330;28;19921;-80
2022/12/28 01:06:15;;;;;;;;;;;2.70;87.90;;;-151.14;100.00;62537.16;5016153;28;20116;-80
2022/12/28 01:08:44;;;;;;;;;;;2.70;87.80;;;-151.14;100.00;62537.16;5033250;28;20231;-80
2022/12/28 01:11:14;;;;;;;;;;;2.80;87.90;;;-151.14;100.00;62537.16;5016714;28;19927;-80
2022/12/28 01:13:42;;;;;;;;;;;2.70;87.80;;;-151.14;100.00;62537.16;5032888;28;19922;-80
2022/12/28 01:16:20;;;;;;;;;;;2.70;87.90;;;-151.14;100.00;62537.16;5016144;28;19957;-80
2022/12/28 01:18:55;;;;;;;;;;;2.70;87.80;;;-151.14;100.00;62537.16;5033071;28;19921;-80
2022/12/28 01:21:24;;;;;;;;;;;2.70;87.80;;;-151.14;100.00;62537.16;5016436;28;19921;-80
2022/12/28 01:23:55;;;;;;;;;;;2.70;88.00;;;-151.14;100.00;62537.16;5016290;28;19921;-80
2022/12/28 01:26:23;;;;;;;;;;;2.70;88.00;;;-151.14;100.00;62537.16;5032375;28;19921;-80
2022/12/28 01:28:51;;;;;;;;;;;2.70;87.90;;;-151.14;100.00;62537.16;5016703;28;19943;-80
2022/12/28 01:31:19;;;;;;;;;;;2.70;87.90;;;-151.14;100.00;62537.16;5049221;28;20205;-80
2022/12/28 01:33:47;;;;;;;;;;;2.70;87.90;;;-151.14;100.00;62537.16;5049259;28;19921;-80
2022/12/28 01:36:17;;;;;;;;;;;2.70;87.90;;;-151.14;100.00;62537.16;5032355;28;19921;-80
2022/12/28 01:38:45;;;;;;;;;;;2.70;87.90;;;-151.14;100.00;62537.16;5016155;28;19935;-80
2022/12/28 01:41:15;;;;;;;;;;;2.70;87.90;;;-151.14;100.00;62537.16;5032503;28;19921;-80
2022/12/28 01:43:44;;;;;;;;;;;2.70;87.90;;;-151.14;100.00;62537.16;5048581;28;19921;-80
2022/12/28 01:46:13;;;;;;;;;;;2.70;87.90;;;-151.14;100.00;62537.16;5015878;28;19921;-80
2022/12/28 01:48:43;;;;;;;;;;;2.70;87.90;;;-151.14;100.00;62537.16;5032685;28;19921;-81
2022/12/28 01:51:13;;;;;;;;;;;2.70;88.00;;;-151.14;100.00;62537.16;5033545;28;19922;-80
2022/12/28 01:53:40;;;;;;;;;;;2.70;88.00;;;-151.14;100.00;62537.16;5015688;28;19927;-80
2022/12/28 01:56:08;;;;;;;;;;;2.70;88.00;;;-151.14;100.00;62537.16;5031882;28;19921;-80
2022/12/28 01:58:38;;;;;;;;;;;2.70;88.00;;;-151.14;100.00;62537.16;5015588;28;19945;-80
2022/12/28 02:01:07;;;;;;;;;;;2.70;87.90;;;-151.14;100.00;62537.16;5032194;28;19935;-80
2022/12/28 02:03:35;;;;;;;;;;;2.70;88.00;;;-151.14;100.00;62537.16;5032080;28;19928;-80
2022/12/28 02:06:05;;;;;;;;;;;2.70;88.00;;;-151.14;100.00;62537.16;5030754;28;20213;-80
2022/12/28 02:08:40;;;;;;;;;;;2.70;88.00;;;-151.14;100.00;62537.16;5031915;28;19921;-80
2022/12/28 02:11:08;;;;;;;;;;;2.70;88.00;;;-151.14;100.00;62537.16;5032142;28;19921;-80
2022/12/28 02:13:37;;;;;;;;;;;2.70;88.00;;;-151.14;100.00;62537.16;5031818;28;20096;-80
2022/12/28 02:16:07;;;;;;;;;;;2.70;88.00;;;-151.14;100.00;62537.16;5031804;28;19927;-80
2022/12/28 02:18:35;;;;;;;;;;;2.70;88.10;;;-151.14;100.00;62537.16;5015790;28;19922;-80
2022/12/28 02:21:19;;;;;;;;;;;2.70;88.10;;;-151.14;100.00;62537.16;5048727;28;19921;-81
2022/12/28 02:24:01;;;;;;;;;;;2.70;88.10;;;-151.14;100.00;62537.16;5031323;28;19928;-80
2022/12/28 02:26:57;;;;;;;;;;;2.70;88.00;;;-151.14;100.00;62537.16;5015079;28;19947;-80
2022/12/28 02:30:00;;;;;;;;;;;2.70;88.00;;;-151.14;100.00;62537.16;5009874;28;20243;-80
2022/12/28 02:32:39;;;;;;;;;;;2.70;88.10;;;-151.14;100.00;62537.16;5015310;28;19921;-80
2022/12/28 02:35:09;;;;;;;;;;;2.70;88.10;;;-151.14;100.00;62537.16;5031031;28;20121;-80
2022/12/28 02:37:40;;;;;;;;;;;2.70;88.10;;;-151.14;100.00;62537.16;5031365;28;19922;-80
2022/12/28 02:40:09;;;;;;;;;;;2.70;88.10;;;-151.14;100.00;62537.16;5031579;28;19921;-80
2022/12/28 02:42:38;;;;;;;;;;;2.70;88.10;;;-151.14;100.00;62537.16;5015457;28;20220;-80
2022/12/28 02:50:58;;;;;;;;;;;2.70;88.10;;;1.41;81.54;97366.50;5089374;28;34389;-81
2022/12/28 02:53:51;;;;;;;;;;;2.70;88.10;;;1.39;81.77;97365.84;5107073;28;20220;-81
2022/12/28 02:56:24;;;;;;;;;;;2.70;88.10;;;1.38;82.09;97367.72;5098618;28;19920;-81
2022/12/28 02:59:20;;;;;;;;;;;2.70;88.20;;;1.37;82.03;97365.19;5107166;28;19930;-81
2022/12/28 03:02:06;;;;;;;;;;;2.70;88.30;;;1.36;81.70;97374.28;5090107;28;19920;-81
2022/12/28 03:04:41;;;;;;;;;;;2.70;88.30;;;1.36;82.37;97379.69;5107102;28;20211;-81
2022/12/28 03:09:59;;;;;;;;;;;2.70;88.40;;;1.34;82.33;97376.38;5090106;28;20230;-81
2022/12/28 03:12:29;;;;;;;;;;;2.70;88.60;;;1.34;82.09;97379.88;5107227;28;19920;-81
2022/12/28 03:14:59;;;;;;;;;;;2.70;88.50;;;1.35;82.30;97386.97;5089458;28;19942;-81
2022/12/28 03:31:27;;;;;;;;;;;2.60;88.70;;;1.34;82.41;97392.56;5012627;28;19939;-81
2022/12/28 03:34:06;;;;;;;;;;;2.60;88.80;;;1.33;82.62;97391.69;5038827;28;19935;-81
2022/12/28 03:36:44;;;;;;;;;;;2.70;89.00;;;1.34;83.11;97392.56;5069409;28;19926;-81
2022/12/28 03:39:16;;;;;;;;;;;2.70;89.20;;;1.32;82.59;97395.41;5103389;28;19927;-81
2022/12/28 03:41:46;;;;;;;;;;;2.60;89.00;;;1.32;82.91;97395.41;5069422;28;19927;-81
2022/12/28 03:44:31;;;;;;;;;;;2.60;88.90;;;1.31;82.99;97399.13;5069345;28;19927;-81
2022/12/28 03:47:01;;;;;;;;;;;2.70;89.10;;;1.32;82.62;97400.81;5087391;28;19926;-81
2022/12/28 03:49:30;;;;;;;;;;;2.70;89.10;;;1.31;82.58;97401.84;5122516;28;20119;-81
2022/12/28 03:52:00;;;;;;;;;;;2.60;88.80;;;1.31;82.49;97404.53;5089313;28;19920;-81
2022/12/28 03:54:29;;;;;;;;;;;2.60;88.80;;;1.31;82.80;97409.91;5089126;28;19920;-81
2022/12/28 03:57:20;;;;;;;;;;;2.60;88.80;;;1.30;82.71;97408.25;5088794;28;20220;-81
2022/12/28 03:59:53;;;;;;;;;;;2.60;88.70;;;1.31;82.62;97414.50;5092539;28;20123;-81
2022/12/28 04:02:30;;;;;;;;;;;2.60;88.80;;;1.31;82.43;97409.09;5092974;28;19926;-81
2022/12/28 04:04:58;;;;;;;;;;;2.60;88.70;;;1.31;82.86;97419.88;5075466;28;19920;-81
2022/12/28 04:07:28;;;;;;;;;;;2.60;88.80;;;1.30;82.71;97413.63;5075816;28;19920;-81
2022/12/28 04:09:58;;;;;;;;;;;2.60;88.80;;;1.30;82.37;97413.63;5076174;28;19927;-81
2022/12/28 04:12:29;;;;;;;;;;;2.60;88.80;;;1.31;82.73;97419.88;5109478;28;19920;-81
2022/12/28 04:15:12;;;;;;;;;;;2.60;88.80;;;1.29;82.37;97416.53;5075088;28;19926;-81
2022/12/28 04:17:40;;;;;;;;;;;2.60;88.80;;;1.30;82.72;97418.22;5076025;28;19920;-81
2022/12/28 04:20:09;;;;;;;;;;;2.60;88.80;;;1.30;82.51;97412.81;5092306;28;20251;-81
2022/12/28 04:22:40;;;;;;;;;;;2.60;88.80;;;1.30;82.42;97419.03;5075693;28;19942;-81
2022/12/28 04:25:30;;;;;;;;;;;2.60;88.80;;;1.26;82.55;97417.75;5092843;28;19920;-81
2022/12/28 04:27:59;;;;;;;;;;;2.60;88.80;;;1.27;82.99;97423.97;5075629;28;20119;-81
2022/12/28 04:30:50;;;;;;;;;;;2.60;88.80;;;1.29;82.17;97427.31;5064250;28;19920;-81
2022/12/28 04:33:20;;;;;;;;;;;2.60;88.60;;;1.28;82.22;97420.25;5092167;28;19920;-81
2022/12/28 04:35:49;;;;;;;;;;;2.60;88.80;;;1.28;82.76;97429.19;5075097;28;19934;-81
2022/12/28 04:38:20;;;;;;;;;;;2.60;88.80;;;1.28;82.59;97423.78;5092278;28;20147;-81
2022/12/28 04:40:47;;;;;;;;;;;2.60;88.50;;;1.29;82.32;97430.03;5075430;28;19920;-81
2022/12/28 04:43:15;;;;;;;;;;;2.60;88.60;;;1.27;82.36;97413.16;5075235;28;19943;-82
2022/12/28 04:45:43;;;;;;;;;;;2.60;88.70;;;1.28;82.38;97420.25;5092639;28;19935;-81
2022/12/28 04:48:11;;;;;;;;;;;2.60;88.70;;;1.28;82.88;97414.84;5095555;28;19919;-81
2022/12/28 04:50:39;;;;;;;;;;;2.60;88.80;;;1.28;83.03;97417.53;5078367;28;19920;-81
2022/12/28 04:53:07;;;;;;;;;;;2.60;88.90;;;1.27;82.68;97426.66;5113487;28;19919;-81
2022/12/28 04:55:36;;;;;;;;;;;2.60;88.80;;;1.27;82.89;97416.72;5094616;28;19920;-81
2022/12/28 04:58:04;;;;;;;;;;;2.60;89.00;;;1.27;83.15;97424.81;5095148;28;19920;-81
2022/12/28 05:00:32;;;;;;;;;;;2.60;89.10;;;1.27;82.55;97429.34;5095353;28;19919;-81
2022/12/28 05:03:00;;;;;;;;;;;2.60;89.10;;;1.26;82.92;97427.66;5095086;28;19926;-81
2022/12/28 05:05:28;;;;;;;;;;;2.60;89.00;;;1.23;82.21;97418.91;5077750;28;20119;-81
2022/12/28 05:07:56;;;;;;;;;;;2.60;88.70;;;1.26;82.48;97427.66;5112936;28;19919;-81
2022/12/28 05:10:24;;;;;;;;;;;2.60;88.80;;;1.26;82.74;97427.66;5093787;28;20131;-81
2022/12/28 05:12:53;;;;;;;;;;;2.60;88.80;;;1.26;82.82;97433.06;5095209;28;19920;-81
2022/12/28 05:15:21;;;;;;;;;;;2.60;88.90;;;1.25;83.03;97429.53;5077537;28;19920;-81
2022/12/28 05:17:49;;;;;;;;;;;2.60;88.90;;;1.26;82.52;97433.06;5094902;28;20377;-81
2022/12/28 05:20:19;;;;;;;;;;;2.60;89.00;;;1.26;82.78;97438.47;5094794;28;19920;-81
2022/12/28 05:22:47;;;;;;;;;;;2.60;89.10;;;1.26;83.08;97438.47;5078081;28;19920;-81
2022/12/28 05:25:15;;;;;;;;;;;2.60;89.10;;;1.24;82.44;97444.06;5094237;28;20120;-81
2022/12/28 05:27:43;;;;;;;;;;;2.50;89.10;;;1.25;82.66;97442.19;5094672;28;19926;-81
2022/12/28 05:30:12;;;;;;;;;;;2.50;89.00;;;1.24;82.85;97446.75;5112751;28;19920;-81
2022/12/28 05:32:40;;;;;;;;;;;2.50;88.90;;;1.25;82.53;97443.03;5112708;28;19933;-81
2022/12/28 05:35:09;;;;;;;;;;;2.60;89.10;;;1.25;82.90;97442.19;5111998;28;19920;-81
2022/12/28 05:37:37;;;;;;;;;;;2.60;89.00;;;1.23;82.91;97451.28;5094538;28;20207;-81
2022/12/28 05:40:06;;;;;;;;;;;2.60;88.90;;;1.23;82.61;97448.59;5094704;28;20118;-81
2022/12/28 05:42:35;;;;;;;;;;;2.60;89.00;;;1.23;82.98;97445.91;5077884;28;20215;-81
2022/12/28 05:45:03;;;;;;;;;;;2.50;89.00;;;1.25;82.78;97447.56;5077155;28;20097;-81
2022/12/28 05:47:32;;;;;;;;;;;2.60;89.10;;;1.24;83.04;97449.44;5111124;28;19926;-81
2022/12/28 05:50:00;;;;;;;;;;;2.50;89.10;;;1.23;82.44;97450.47;5093977;28;19920;-81
2022/12/28 05:52:29;;;;;;;;;;;2.60;89.00;;;1.23;82.80;97454.00;5094543;28;19920;-82
2022/12/28 05:54:57;;;;;;;;;;;2.50;89.00;;;1.23;82.53;97445.91;5076821;28;19920;-81
2022/12/28 05:57:25;;;;;;;;;;;2.60;89.10;;;1.22;82.92;97446.94;5094627;28;19920;-81
2022/12/28 05:59:52;;;;;;;;;;;2.50;88.90;;;1.23;82.39;97445.91;5077362;28;19920;-81
2022/12/28 06:02:24;;;;;;;;;;;2.50;88.90;;;1.22;82.52;97444.25;5094321;28;19920;-81
2022/12/28 06:04:53;;;;;;;;;;;2.50;88.90;;;1.23;83.04;97450.47;5093294;28;19926;-81
2022/12/28 06:07:21;;;;;;;;;;;2.60;89.10;;;1.22;82.71;97444.25;5093812;28;19924;-81
2022/12/28 06:09:49;;;;;;;;;;;2.50;89.10;;;1.23;82.48;97445.06;5093962;28;20123;-81
2022/12/28 06:12:17;;;;;;;;;;;2.50;89.00;;;1.21;82.42;97442.56;5112227;28;20097;-81
2022/12/28 06:14:45;;;;;;;;;;;2.60;89.00;;;1.21;82.78;97437.16;5093507;28;20145;-81
2022/12/28 06:17:13;;;;;;;;;;;2.60;88.90;;;1.23;82.55;97440.50;5111983;28;19924;-81
2022/12/28 06:19:41;;;;;;;;;;;2.50;88.90;;;1.23;83.09;97445.06;5112052;28;19920;-81
2022/12/28 06:22:10;;;;;;;;;;;2.60;89.00;;;1.23;82.55;97435.09;5110731;28;20309;-82
2022/12/28 06:24:38;;;;;;;;;;;2.50;89.00;;;1.25;82.95;97442.19;5076410;28;19920;-82
2022/12/28 06:27:06;;;;;;;;;;;2.50;89.00;;;1.22;82.98;97441.53;5094061;28;19919;-81
2022/12/28 06:29:34;;;;;;;;;;;2.50;89.10;;;1.25;82.93;97444.88;5093529;28;20104;-81
2022/12/28 06:32:02;;;;;;;;;;;2.50;89.10;;;1.26;82.68;97449.25;5076902;28;19920;-81
2022/12/28 06:34:30;;;;;;;;;;;2.60;88.90;;;1.26;82.62;97449.25;5110484;28;20115;-82
2022/12/28 06:36:59;;;;;;;;;;;2.50;89.00;;;1.23;82.59;97448.59;5093317;28;19920;-81
2022/12/28 06:39:28;;;;;;;;;;;2.60;89.00;;;1.26;82.94;97446.56;5093806;28;19920;-82
2022/12/28 06:41:56;;;;;;;;;;;2.60;89.10;;;1.26;82.71;97449.25;5077073;28;19920;-82
2022/12/28 06:44:24;;;;;;;;;;;2.60;89.00;;;1.26;82.92;97455.50;5111311;28;20119;-82
2022/12/28 06:46:52;;;;;;;;;;;2.50;88.90;;;1.27;82.47;97450.94;5075947;28;20219;-82
2022/12/28 06:49:21;;;;;;;;;;;2.60;88.90;;;1.30;82.64;97453.28;5110352;28;19926;-81
2022/12/28 06:51:49;;;;;;;;;;;2.60;88.90;;;1.32;82.65;97459.34;5076850;28;19926;-82
2022/12/28 06:54:17;;;;;;;;;;;2.60;89.60;;;1.33;82.27;97459.16;5111382;28;19942;-82
2022/12/28 06:56:50;;;;;;;;;;;2.60;88.60;;;1.38;82.04;97447.81;5110558;28;19927;-82
2022/12/28 06:59:22;;;;;;;;;;;2.70;88.60;;;1.41;82.45;97460.13;5093713;28;20116;-82
2022/12/28 07:01:52;;;;;;;;;;;2.70;88.50;;;1.43;82.55;97456.22;5106480;28;19926;-82
2022/12/28 07:04:20;;;;;;;;;;;2.70;88.50;;;1.46;82.00;97457.69;5111184;28;19920;-82
2022/12/28 07:06:48;;;;;;;;;;;2.80;88.40;;;1.50;81.89;97461.72;5093060;28;20234;-81
2022/12/28 07:09:16;;;;;;;;;;;2.80;88.30;;;1.52;82.25;97460.50;5076401;28;19927;-82
2022/12/28 07:11:46;;;;;;;;;;;2.80;88.20;;;1.56;81.98;97470.94;5093338;28;19920;-82
2022/12/28 07:14:16;;;;;;;;;;;2.90;88.30;;;1.57;81.95;97464.53;5076105;28;19926;-82
2022/12/28 07:16:47;;;;;;;;;;;2.90;88.10;;;1.59;81.44;97462.50;5076198;28;19920;-82
2022/12/28 07:19:15;;;;;;;;;;;2.90;88.00;;;1.60;81.39;97466.88;5111342;28;19941;-82
2022/12/28 07:21:43;;;;;;;;;;;2.90;88.00;;;1.61;81.58;97460.47;5092991;28;20230;-82
2022/12/28 07:24:11;;;;;;;;;;;2.90;87.90;;;1.63;81.96;97461.09;5076340;28;19920;-82
2022/12/28 07:26:46;;;;;;;;;;;2.90;87.80;;;1.63;81.50;97461.09;5110740;28;19927;-82
2022/12/28 07:29:16;;;;;;;;;;;2.90;87.80;;;1.65;81.51;97453.66;5076179;28;19926;-82
2022/12/28 07:31:44;;;;;;;;;;;2.90;87.80;;;1.68;81.65;97453.28;5111049;28;19920;-82
2022/12/28 07:34:18;;;;;;;;;;;3.00;87.80;;;1.70;81.42;97451.25;5078596;28;19920;-82
2022/12/28 07:36:46;;;;;;;;;;;3.00;87.80;;;1.74;81.91;97449.88;5113984;28;20203;-82
2022/12/28 07:39:35;;;;;;;;;;;3.00;87.80;;;1.78;81.59;97453.88;5096380;28;19931;-81
2022/12/28 07:42:10;;;;;;;;;;;3.10;87.90;;;1.81;81.13;97450.81;5105546;28;19920;-82
2022/12/28 07:44:40;;;;;;;;;;;3.10;87.70;;;1.87;81.02;97451.09;5096000;28;19920;-81
2022/12/28 07:47:08;;;;;;;;;;;3.10;87.50;;;1.92;81.35;97451.38;5079307;28;19933;-81
2022/12/28 07:49:36;;;;;;;;;;;3.10;87.40;;;1.96;81.46;97452.69;5096261;28;19920;-82
2022/12/28 07:52:04;;;;;;;;;;;3.20;87.30;;;1.99;80.56;97441.53;5096314;28;19920;-82
2022/12/28 07:54:35;;;;;;;;;;;3.20;87.10;;;2.04;80.85;97441.78;5095869;28;19926;-82
2022/12/28 07:57:43;;;;;;;;;;;3.30;87.10;;;2.05;80.32;97438.06;5113740;28;20207;-82
2022/12/28 08:00:15;;;;;;;;;;;3.30;86.90;;;2.13;80.52;97439.84;5079330;28;19920;-82
2022/12/28 08:02:43;;;;;;;;;;;3.40;86.70;;;2.15;80.17;97446.72;5096182;28;19920;-81
2022/12/28 08:05:11;;;;;;;;;;;3.40;86.70;;;2.20;80.87;97440.75;5095469;28;19920;-82
2022/12/28 08:07:39;;;;;;;;;;;3.50;86.80;;;2.24;80.06;97444.78;5113927;28;20225;-82
2022/12/28 08:10:08;;;;;;;;;;;3.40;86.60;;;2.26;80.53;97445.44;5095979;28;20110;-81
2022/12/28 08:12:41;;;;;;;;;;;3.50;86.60;;;2.30;79.86;97441.34;5095831;28;19920;-82
2022/12/28 08:15:17;;;;;;;;;;;3.50;86.50;;;2.34;80.14;97435.53;5078425;28;20215;-81
2022/12/28 08:18:07;;;;;;;;;;;3.50;86.40;;;2.35;79.84;97427.25;5096086;28;19920;-81
2022/12/28 08:20:35;;;;;;;;;;;3.60;86.20;;;2.39;79.95;97427.72;5078755;28;20449;-82
2022/12/28 08:23:03;;;;;;;;;;;3.60;86.00;;;2.40;79.88;97422.13;5078910;28;19920;-81
2022/12/28 08:25:31;;;;;;;;;;;3.60;85.90;;;2.44;79.81;97425.31;5095152;28;19919;-82
2022/12/28 08:28:00;;;;;;;;;;;3.70;86.00;;;2.47;79.69;97434.88;5095611;28;19919;-81
2022/12/28 08:30:28;;;;;;;;;;;3.70;85.90;;;2.48;79.52;97436.56;5096357;28;19920;-82
2022/12/28 08:32:56;;;;;;;;;;;3.70;85.80;;;2.49;79.40;97438.25;5080437;28;19920;-81
2022/12/28 08:35:24;;;;;;;;;;;3.70;85.80;;;2.51;79.51;97431.63;5095813;28;19934;-81
2022/12/28 08:37:59;;;;;;;;;;;3.80;85.60;;;2.54;79.43;97425.00;5078861;28;19919;-82
2022/12/28 08:40:36;;;;;;;;;;;3.80;85.60;;;2.55;79.70;97438.34;5113721;28;20123;-82
2022/12/28 08:43:06;;;;;;;;;;;3.80;85.50;;;2.56;79.64;97434.59;5095309;28;20092;-82
2022/12/28 08:45:46;;;;;;;;;;;3.80;85.40;;;2.58;79.52;97431.69;5077778;28;19920;-82
2022/12/28 08:48:14;;;;;;;;;;;3.80;85.30;;;2.60;79.25;97432.34;5078800;28;19924;-81
2022/12/28 08:50:42;;;;;;;;;;;3.90;85.30;;;2.60;79.44;97435.88;5095380;28;19920;-81
2022/12/28 08:53:10;;;;;;;;;;;3.90;85.20;;;2.62;78.79;97438.41;5078693;28;19920;-81
2022/12/28 08:55:38;;;;;;;;;;;3.90;85.20;;;2.63;79.18;97433.84;5095038;28;20119;-81
2022/12/28 08:58:07;;;;;;;;;;;3.90;85.20;;;2.63;79.38;97428.44;5113501;28;19928;-82
2022/12/28 09:00:35;;;;;;;;;;;3.90;85.10;;;2.63;79.19;97423.88;5095258;28;19926;-81
2022/12/28 09:03:03;;;;;;;;;;;3.90;85.10;;;2.65;79.24;97426.38;5078566;28;19919;-81
2022/12/28 09:05:31;;;;;;;;;;;3.90;85.10;;;2.64;78.71;97425.56;5094592;28;19920;-82
2022/12/28 09:07:59;;;;;;;;;;;3.90;84.90;;;2.64;78.86;97425.56;5095234;28;19926;-81
2022/12/28 09:10:27;;;;;;;;;;;3.90;84.90;;;2.65;78.75;97418.25;5094921;28;19920;-81
2022/12/28 09:12:55;;;;;;;;;;;3.90;84.90;;;2.63;78.67;97423.88;5113032;28;20092;-82
2022/12/28 09:15:27;;;;;;;;;;;4.00;84.80;;;2.63;78.96;97423.88;5094403;28;19927;-81
2022/12/28 09:17:54;;;;;;;;;;;3.90;84.80;;;2.62;79.38;97416.78;5095148;28;19920;-81
2022/12/28 09:20:22;;;;;;;;;;;3.90;84.80;;;2.62;79.02;97424.91;5094811;28;19919;-81
2022/12/28 09:22:50;;;;;;;;;;;3.90;84.90;;;2.62;79.26;97411.38;5094898;28;20215;-81
2022/12/28 09:25:19;;;;;;;;;;;3.90;84.80;;;2.59;79.61;97407.16;5077048;28;19919;-81
2022/12/28 09:27:48;;;;;;;;;;;3.90;84.80;;;2.60;78.77;97397.22;5113118;28;19920;-81
2022/12/28 09:30:16;;;;;;;;;;;3.90;84.80;;;2.59;79.56;97398.25;5094760;28;19920;-82
2022/12/28 09:33:57;;;;;;;;;;;3.90;85.00;;;2.58;79.18;97399.25;5112651;28;19920;-81
2022/12/28 09:35:43;;;;;;;;;;;3.90;85.00;;;2.56;78.94;97396.75;5094038;28;19920;-81
2022/12/28 09:38:11;;;;;;;;;;;3.90;84.90;;;2.56;79.35;97391.34;5094591;28;20111;-81
2022/12/28 09:40:39;;;;;;;;;;;3.90;85.00;;;2.56;79.73;97385.09;5077552;28;19926;-82
2022/12/28 09:43:08;;;;;;;;;;;3.90;85.00;;;2.54;79.28;97384.44;5094610;28;20211;-82
2022/12/28 09:45:36;;;;;;;;;;;3.90;85.10;;;2.55;79.06;97378.00;5111875;28;19920;-81
2022/12/28 09:48:07;;;;;;;;;;;3.90;85.10;;;2.54;79.42;97376.34;5112354;28;19942;-82
2022/12/28 09:50:35;;;;;;;;;;;3.90;85.20;;;2.54;79.07;97376.34;5077580;28;19920;-82
2022/12/28 09:53:15;;;;;;;;;;;3.90;85.00;;;2.53;79.36;97380.91;5094387;28;19926;-82
2022/12/28 09:55:48;;;;;;;;;;;3.90;85.00;;;2.53;79.47;97380.91;5093005;28;19920;-82
2022/12/28 09:58:16;;;;;;;;;;;3.90;85.00;;;2.52;79.34;97381.94;5094235;28;19919;-81
2022/12/28 10:00:45;;;;;;;;;;;3.90;85.10;;;2.53;79.01;97382.75;5077131;28;20218;-81
2022/12/28 10:03:16;;;;;;;;;;;3.90;85.10;;;2.53;79.08;97380.06;5112219;28;19920;-82
2022/12/28 10:05:44;;;;;;;;;;;3.90;85.00;;;2.53;79.16;97375.50;5111898;28;19926;-81
2022/12/28 10:08:13;;;;;;;;;;;3.80;84.80;;;2.53;78.98;97378.22;5112357;28;20119;-82
2022/12/28 10:10:46;;;;;;;;;;;3.90;84.90;;;2.52;79.09;97370.31;5110976;28;19934;-82
2022/12/28 10:13:17;;;;;;;;;;;3.90;84.90;;;2.52;79.23;97359.50;5076751;28;19927;-81
2022/12/28 10:15:45;;;;;;;;;;;3.90;84.90;;;2.52;78.93;97365.72;5093716;28;20111;-81
2022/12/28 10:18:13;;;;;;;;;;;3.90;84.80;;;2.52;78.76;97357.63;5094183;28;19920;-82
2022/12/28 10:20:45;;;;;;;;;;;3.90;84.80;;;2.51;78.93;97349.72;5077235;28;20096;-82
2022/12/28 10:23:14;;;;;;;;;;;3.90;84.80;;;2.52;79.27;97357.63;5076941;28;19920;-81
2022/12/28 10:25:42;;;;;;;;;;;3.80;84.80;;;2.52;79.39;97348.69;5076822;28;19926;-81
2022/12/28 10:28:10;;;;;;;;;;;3.90;84.90;;;2.52;79.29;97345.97;5093939;28;19919;-81
2022/12/28 10:30:44;;;;;;;;;;;3.90;84.90;;;2.53;79.24;97344.91;5093641;28;19919;-82
2022/12/28 10:33:32;;;;;;;;;;;3.90;84.90;;;2.51;79.43;97349.72;5093844;28;19920;-82
2022/12/28 10:36:13;;;;;;;;;;;3.90;84.90;;;2.52;79.08;97348.69;5077414;28;19920;-82
2022/12/28 10:38:42;;;;;;;;;;;3.90;84.90;;;2.50;79.05;97353.44;5093948;28;19920;-82
2022/12/28 10:41:11;;;;;;;;;;;3.90;84.90;;;2.51;79.45;97349.72;5093753;28;20131;-82
2022/12/28 10:43:39;;;;;;;;;;;3.80;84.70;;;2.51;79.31;97349.72;5076610;28;19938;-82
2022/12/28 10:46:25;;;;;;;;;;;3.80;84.70;;;2.49;79.23;97351.75;5111016;28;19926;-81
2022/12/28 10:48:54;;;;;;;;;;;3.80;84.70;;;2.50;79.01;97350.72;5093608;28;20138;-82
2022/12/28 10:51:24;;;;;;;;;;;3.80;84.70;;;2.48;79.09;97340.09;5076778;28;19920;-82
2022/12/28 10:53:55;;;;;;;;;;;3.80;84.70;;;2.48;78.92;97341.97;5111490;28;19920;-82
2022/12/28 10:56:24;;;;;;;;;;;3.80;84.80;;;2.48;78.72;97333.84;5111362;28;19926;-82
2022/12/28 10:58:53;;;;;;;;;;;3.80;84.70;;;2.48;79.22;97341.97;5077046;28;20127;-82
2022/12/28 11:01:25;;;;;;;;;;;3.80;84.80;;;2.45;79.40;97338.63;5078668;28;19920;-80
2022/12/28 11:04:01;;;;;;;;;;;3.80;84.70;;;2.45;79.29;97332.38;5111412;28;19923;-79
2022/12/28 11:06:34;;;;;;;;;;;3.80;84.70;;;2.45;79.23;97330.50;5056136;28;19920;-80
2022/12/28 11:09:06;;;;;;;;;;;3.80;84.70;;;2.44;78.91;97328.81;5075438;28;19920;-80
2022/12/28 11:11:34;;;;;;;;;;;3.80;84.80;;;2.44;79.11;97328.00;5113824;28;20111;-80
2022/12/28 11:14:04;;;;;;;;;;;3.80;84.90;;;2.42;79.72;97330.88;5096829;28;19920;-80
2022/12/28 11:16:35;;;;;;;;;;;3.80;85.00;;;2.42;79.51;97319.25;5114637;28;19926;-80
2022/12/28 11:19:03;;;;;;;;;;;3.80;84.90;;;2.40;79.42;97316.72;5096850;28;19926;-80
2022/12/28 11:21:32;;;;;;;;;;;3.80;85.10;;;2.40;79.05;97321.28;5114733;28;19926;-80
2022/12/28 11:24:00;;;;;;;;;;;3.70;84.90;;;2.38;78.71;97318.81;5114509;28;19951;-80
2022/12/28 11:26:28;;;;;;;;;;;3.70;84.90;;;2.38;79.38;97317.94;5096654;28;19965;-82
2022/12/28 11:28:56;;;;;;;;;;;3.70;84.90;;;2.36;78.93;97310.03;5080030;28;19920;-82
2022/12/28 11:31:26;;;;;;;;;;;3.70;85.00;;;2.35;79.29;97307.50;5096804;28;19919;-82
2022/12/28 11:33:54;;;;;;;;;;;3.70;85.10;;;2.33;79.67;97305.00;5114615;28;19920;-82
2022/12/28 11:36:23;;;;;;;;;;;3.60;85.10;;;2.32;79.67;97297.94;5096216;28;19928;-81
2022/12/28 11:38:54;;;;;;;;;;;3.70;85.20;;;2.30;79.38;97308.94;5096521;28;19920;-82
2022/12/28 11:41:42;;;;;;;;;;;3.60;85.10;;;2.29;79.77;97301.84;5096624;28;19942;-81
2022/12/28 11:44:20;;;;;;;;;;;3.60;85.20;;;2.28;79.28;97302.88;5079413;28;19919;-82
2022/12/28 11:47:00;;;;;;;;;;;3.60;85.30;;;2.27;79.61;97294.94;5114192;28;20084;-81
2022/12/28 11:49:32;;;;;;;;;;;3.60;85.40;;;2.25;80.00;97294.34;5096429;28;19926;-81
2022/12/28 11:52:43;;;;;;;;;;;3.60;85.40;;;2.24;80.16;97289.94;5079436;28;20304;-82
2022/12/28 11:55:44;;;;;;;;;;;3.50;85.50;;;2.23;79.79;97288.28;5095698;28;19928;-81
2022/12/28 11:58:38;;;;;;;;;;;3.50;85.50;;;2.21;79.93;97287.63;5114399;28;19920;-82
2022/12/28 12:01:06;;;;;;;;;;;3.50;85.60;;;2.20;79.76;97289.47;5102976;28;19926;-82
2022/12/28 12:04:16;;;;;;;;;;;3.50;85.60;;;2.18;80.27;97279.91;5113134;28;19920;-82
2022/12/28 12:07:07;;;;;;;;;;;3.50;85.60;;;2.16;79.62;97274.69;5095981;28;19920;-82
2022/12/28 12:09:43;;;;;;;;;;;3.50;85.80;;;2.14;79.97;97269.47;5096257;28;20110;-82